sensor_id;sensor_type;location;lat;lon;timestamp;temperature;humidity
22974;DHT22;11653;50.848;4.584;2022-08-30T00:00:21;19.30;99.90
22974;DHT22;11653;50.848;4.584;2022-08-30T00:03:07;19.30;99.90
22974;DHT22;11653;50.848;4.584;2022-08-30T00:05:33;19.20;99.90
22974;DHT22;11653;50.848;4.584;2022-08-30T00:07:59;19.20;99.90
22974;DHT22;11653;50.848;4.584;2022-08-30T00:10:25;19.20;99.90
22974;DHT22;11653;50.848;4.584;2022-08-30T00:12:53;19.20;99.90
22974;DHT22;11653;50.848;4.584;2022-08-30T00:15:19;19.10;99.90
22974;DHT22;11653;50.848;4.584;2022-08-30T00:17:45;19.10;99.90
22974;DHT22;11653;50.848;4.584;2022-08-30T00:20:13;19.10;99.90
22974;DHT22;11653;50.848;4.584;2022-08-30T00:22:40;19.10;99.90
22974;DHT22;11653;50.848;4.584;2022-08-30T00:25:07;19.10;99.90
22974;DHT22;11653;50.848;4.584;2022-08-30T00:27:32;19.00;99.90
22974;DHT22;11653;50.848;4.584;2022-08-30T00:29:58;19.10;99.90
22974;DHT22;11653;50.848;4.584;2022-08-30T00:32:25;19.10;99.90
22974;DHT22;11653;50.848;4.584;2022-08-30T00:34:52;19.10;99.90
22974;DHT22;11653;50.848;4.584;2022-08-30T00:37:18;19.20;99.90
22974;DHT22;11653;50.848;4.584;2022-08-30T00:39:44;19.20;99.90
22974;DHT22;11653;50.848;4.584;2022-08-30T00:42:12;19.30;99.90
22974;DHT22;11653;50.848;4.584;2022-08-30T00:44:38;19.20;99.90
22974;DHT22;11653;50.848;4.584;2022-08-30T00:47:04;19.20;99.90
22974;DHT22;11653;50.848;4.584;2022-08-30T00:49:32;19.30;99.90
22974;DHT22;11653;50.848;4.584;2022-08-30T00:51:59;19.20;99.90
22974;DHT22;11653;50.848;4.584;2022-08-30T00:54:25;19.30;99.90
22974;DHT22;11653;50.848;4.584;2022-08-30T00:56:51;19.20;99.90
22974;DHT22;11653;50.848;4.584;2022-08-30T00:59:18;19.30;99.90
22974;DHT22;11653;50.848;4.584;2022-08-30T01:01:44;19.30;99.90
22974;DHT22;11653;50.848;4.584;2022-08-30T01:04:10;19.20;99.90
22974;DHT22;11653;50.848;4.584;2022-08-30T01:06:38;19.20;99.90
22974;DHT22;11653;50.848;4.584;2022-08-30T01:09:05;19.20;99.90
22974;DHT22;11653;50.848;4.584;2022-08-30T01:11:33;19.20;99.90
22974;DHT22;11653;50.848;4.584;2022-08-30T01:14:00;19.20;99.90
22974;DHT22;11653;50.848;4.584;2022-08-30T01:16:26;19.20;99.90
22974;DHT22;11653;50.848;4.584;2022-08-30T01:18:56;19.20;99.90
22974;DHT22;11653;50.848;4.584;2022-08-30T01:21:44;19.20;99.90
22974;DHT22;11653;50.848;4.584;2022-08-30T01:24:11;19.20;99.90
22974;DHT22;11653;50.848;4.584;2022-08-30T01:26:38;19.10;99.90
22974;DHT22;11653;50.848;4.584;2022-08-30T01:29:07;19.10;99.90
22974;DHT22;11653;50.848;4.584;2022-08-30T01:31:34;19.10;99.90
22974;DHT22;11653;50.848;4.584;2022-08-30T01:34:02;19.10;99.90
22974;DHT22;11653;50.848;4.584;2022-08-30T01:36:30;19.00;99.90
22974;DHT22;11653;50.848;4.584;2022-08-30T01:38:57;19.00;99.90
22974;DHT22;11653;50.848;4.584;2022-08-30T01:41:28;18.90;99.90
22974;DHT22;11653;50.848;4.584;2022-08-30T01:43:58;18.90;99.90
22974;DHT22;11653;50.848;4.584;2022-08-30T01:46:28;18.90;99.90
22974;DHT22;11653;50.848;4.584;2022-08-30T01:48:55;18.90;99.90
22974;DHT22;11653;50.848;4.584;2022-08-30T01:51:23;18.80;99.90
22974;DHT22;11653;50.848;4.584;2022-08-30T01:53:49;18.90;99.90
22974;DHT22;11653;50.848;4.584;2022-08-30T01:56:15;18.90;99.90
22974;DHT22;11653;50.848;4.584;2022-08-30T01:58:41;18.90;99.90
22974;DHT22;11653;50.848;4.584;2022-08-30T02:01:11;18.80;99.90
22974;DHT22;11653;50.848;4.584;2022-08-30T02:03:38;18.80;99.90
22974;DHT22;11653;50.848;4.584;2022-08-30T02:06:06;18.80;99.90
22974;DHT22;11653;50.848;4.584;2022-08-30T02:08:32;18.70;99.90
22974;DHT22;11653;50.848;4.584;2022-08-30T02:10:58;18.60;99.90
22974;DHT22;11653;50.848;4.584;2022-08-30T02:13:25;18.60;99.90
22974;DHT22;11653;50.848;4.584;2022-08-30T02:15:51;18.60;99.90
22974;DHT22;11653;50.848;4.584;2022-08-30T02:18:19;18.50;99.90
22974;DHT22;11653;50.848;4.584;2022-08-30T02:20:45;18.40;99.90
22974;DHT22;11653;50.848;4.584;2022-08-30T02:23:11;18.40;99.90
22974;DHT22;11653;50.848;4.584;2022-08-30T02:25:36;18.30;99.90
22974;DHT22;11653;50.848;4.584;2022-08-30T02:28:03;18.30;99.90
22974;DHT22;11653;50.848;4.584;2022-08-30T02:30:29;18.20;99.90
22974;DHT22;11653;50.848;4.584;2022-08-30T02:32:54;18.30;99.90
22974;DHT22;11653;50.848;4.584;2022-08-30T02:35:20;18.20;99.90
22974;DHT22;11653;50.848;4.584;2022-08-30T02:37:46;18.20;99.90
22974;DHT22;11653;50.848;4.584;2022-08-30T02:40:11;18.20;99.90
22974;DHT22;11653;50.848;4.584;2022-08-30T02:42:37;18.20;99.90
22974;DHT22;11653;50.848;4.584;2022-08-30T02:45:04;18.10;99.90
22974;DHT22;11653;50.848;4.584;2022-08-30T02:47:29;18.00;99.90
22974;DHT22;11653;50.848;4.584;2022-08-30T02:49:55;18.00;99.90
22974;DHT22;11653;50.848;4.584;2022-08-30T02:52:21;17.90;99.90
22974;DHT22;11653;50.848;4.584;2022-08-30T02:54:47;18.00;99.90
22974;DHT22;11653;50.848;4.584;2022-08-30T02:57:12;18.00;99.90
22974;DHT22;11653;50.848;4.584;2022-08-30T02:59:39;17.90;99.90
22974;DHT22;11653;50.848;4.584;2022-08-30T03:02:09;17.90;99.90
22974;DHT22;11653;50.848;4.584;2022-08-30T03:04:35;17.80;99.90
22974;DHT22;11653;50.848;4.584;2022-08-30T03:07:02;17.80;99.90
22974;DHT22;11653;50.848;4.584;2022-08-30T03:09:27;17.80;99.90
22974;DHT22;11653;50.848;4.584;2022-08-30T03:11:54;17.70;99.90
22974;DHT22;11653;50.848;4.584;2022-08-30T03:14:19;17.70;99.90
22974;DHT22;11653;50.848;4.584;2022-08-30T03:16:45;17.70;99.90
22974;DHT22;11653;50.848;4.584;2022-08-30T03:19:11;17.70;99.90
22974;DHT22;11653;50.848;4.584;2022-08-30T03:21:37;17.70;99.90
22974;DHT22;11653;50.848;4.584;2022-08-30T03:24:02;17.70;99.90
22974;DHT22;11653;50.848;4.584;2022-08-30T03:26:28;17.70;99.90
22974;DHT22;11653;50.848;4.584;2022-08-30T03:28:54;17.70;99.90
22974;DHT22;11653;50.848;4.584;2022-08-30T03:31:19;17.60;99.90
22974;DHT22;11653;50.848;4.584;2022-08-30T03:33:45;17.70;99.90
22974;DHT22;11653;50.848;4.584;2022-08-30T03:36:11;17.70;99.90
22974;DHT22;11653;50.848;4.584;2022-08-30T03:38:37;17.70;99.90
22974;DHT22;11653;50.848;4.584;2022-08-30T03:41:03;17.70;99.90
22974;DHT22;11653;50.848;4.584;2022-08-30T03:43:30;17.80;99.90
22974;DHT22;11653;50.848;4.584;2022-08-30T03:46:00;17.80;99.90
22974;DHT22;11653;50.848;4.584;2022-08-30T03:48:27;17.90;99.90
22974;DHT22;11653;50.848;4.584;2022-08-30T03:50:52;18.00;99.90
22974;DHT22;11653;50.848;4.584;2022-08-30T03:53:19;18.00;99.90
22974;DHT22;11653;50.848;4.584;2022-08-30T03:55:44;18.00;99.90
22974;DHT22;11653;50.848;4.584;2022-08-30T03:58:10;18.00;99.90
22974;DHT22;11653;50.848;4.584;2022-08-30T04:00:36;18.00;99.90
22974;DHT22;11653;50.848;4.584;2022-08-30T04:03:02;18.00;99.90
22974;DHT22;11653;50.848;4.584;2022-08-30T04:05:27;18.00;99.90
22974;DHT22;11653;50.848;4.584;2022-08-30T04:07:53;18.00;99.90
22974;DHT22;11653;50.848;4.584;2022-08-30T04:10:19;18.00;99.90
22974;DHT22;11653;50.848;4.584;2022-08-30T04:12:46;18.00;99.90
22974;DHT22;11653;50.848;4.584;2022-08-30T04:15:12;18.00;99.90
22974;DHT22;11653;50.848;4.584;2022-08-30T04:17:39;18.00;99.90
22974;DHT22;11653;50.848;4.584;2022-08-30T04:20:05;18.00;99.90
22974;DHT22;11653;50.848;4.584;2022-08-30T04:22:31;17.90;99.90
22974;DHT22;11653;50.848;4.584;2022-08-30T04:24:56;18.00;99.90
22974;DHT22;11653;50.848;4.584;2022-08-30T04:27:22;18.00;99.90
22974;DHT22;11653;50.848;4.584;2022-08-30T04:29:48;17.90;99.90
22974;DHT22;11653;50.848;4.584;2022-08-30T04:32:14;17.90;99.90
22974;DHT22;11653;50.848;4.584;2022-08-30T04:34:41;17.80;99.90
22974;DHT22;11653;50.848;4.584;2022-08-30T04:37:07;17.80;99.90
22974;DHT22;11653;50.848;4.584;2022-08-30T04:39:33;17.70;99.90
22974;DHT22;11653;50.848;4.584;2022-08-30T04:41:59;17.70;99.90
22974;DHT22;11653;50.848;4.584;2022-08-30T04:44:25;17.70;99.90
22974;DHT22;11653;50.848;4.584;2022-08-30T04:46:52;17.70;99.90
22974;DHT22;11653;50.848;4.584;2022-08-30T04:49:18;17.60;99.90
22974;DHT22;11653;50.848;4.584;2022-08-30T04:51:45;17.60;99.90
22974;DHT22;11653;50.848;4.584;2022-08-30T04:54:10;17.60;99.90
22974;DHT22;11653;50.848;4.584;2022-08-30T04:56:36;17.50;99.90
22974;DHT22;11653;50.848;4.584;2022-08-30T04:59:02;17.60;99.90
22974;DHT22;11653;50.848;4.584;2022-08-30T05:01:30;17.50;99.90
22974;DHT22;11653;50.848;4.584;2022-08-30T05:03:56;17.50;99.90
22974;DHT22;11653;50.848;4.584;2022-08-30T05:06:24;17.50;99.90
22974;DHT22;11653;50.848;4.584;2022-08-30T05:08:50;17.60;99.90
22974;DHT22;11653;50.848;4.584;2022-08-30T05:11:17;17.50;99.90
22974;DHT22;11653;50.848;4.584;2022-08-30T05:13:43;17.50;99.90
22974;DHT22;11653;50.848;4.584;2022-08-30T05:16:09;17.50;99.90
22974;DHT22;11653;50.848;4.584;2022-08-30T05:18:37;17.60;99.90
22974;DHT22;11653;50.848;4.584;2022-08-30T05:21:16;17.60;99.90
22974;DHT22;11653;50.848;4.584;2022-08-30T05:23:43;17.60;99.90
22974;DHT22;11653;50.848;4.584;2022-08-30T05:26:15;17.70;99.90
22974;DHT22;11653;50.848;4.584;2022-08-30T05:28:41;17.80;99.90
22974;DHT22;11653;50.848;4.584;2022-08-30T05:31:20;18.00;99.90
22974;DHT22;11653;50.848;4.584;2022-08-30T05:33:47;18.10;99.90
22974;DHT22;11653;50.848;4.584;2022-08-30T05:36:15;18.20;99.90
22974;DHT22;11653;50.848;4.584;2022-08-30T05:38:41;18.30;99.90
22974;DHT22;11653;50.848;4.584;2022-08-30T05:41:07;18.50;99.90
22974;DHT22;11653;50.848;4.584;2022-08-30T05:43:33;18.60;99.90
22974;DHT22;11653;50.848;4.584;2022-08-30T05:46:10;18.90;99.90
22974;DHT22;11653;50.848;4.584;2022-08-30T05:48:37;19.20;99.90
22974;DHT22;11653;50.848;4.584;2022-08-30T05:53:29;19.50;99.90
22974;DHT22;11653;50.848;4.584;2022-08-30T05:55:55;19.80;99.90
22974;DHT22;11653;50.848;4.584;2022-08-30T05:58:20;20.10;99.90
22974;DHT22;11653;50.848;4.584;2022-08-30T06:00:46;20.40;99.90
22974;DHT22;11653;50.848;4.584;2022-08-30T06:03:12;20.50;99.90
22974;DHT22;11653;50.848;4.584;2022-08-30T06:05:38;20.80;99.90
22974;DHT22;11653;50.848;4.584;2022-08-30T06:08:03;21.00;99.90
22974;DHT22;11653;50.848;4.584;2022-08-30T06:10:29;21.10;99.90
22974;DHT22;11653;50.848;4.584;2022-08-30T06:12:55;21.10;99.90
22974;DHT22;11653;50.848;4.584;2022-08-30T06:15:20;21.10;99.90
22974;DHT22;11653;50.848;4.584;2022-08-30T06:17:47;21.10;99.90
22974;DHT22;11653;50.848;4.584;2022-08-30T06:20:12;21.10;99.90
22974;DHT22;11653;50.848;4.584;2022-08-30T06:22:39;21.00;99.90
22974;DHT22;11653;50.848;4.584;2022-08-30T06:25:05;21.10;99.90
22974;DHT22;11653;50.848;4.584;2022-08-30T06:27:31;21.10;99.90
22974;DHT22;11653;50.848;4.584;2022-08-30T06:29:57;21.00;99.90
22974;DHT22;11653;50.848;4.584;2022-08-30T06:32:23;21.00;99.90
22974;DHT22;11653;50.848;4.584;2022-08-30T06:34:49;20.90;99.90
22974;DHT22;11653;50.848;4.584;2022-08-30T06:37:14;20.90;99.90
22974;DHT22;11653;50.848;4.584;2022-08-30T06:39:40;21.00;99.90
22974;DHT22;11653;50.848;4.584;2022-08-30T06:42:06;20.90;99.90
22974;DHT22;11653;50.848;4.584;2022-08-30T06:44:32;20.80;99.90
22974;DHT22;11653;50.848;4.584;2022-08-30T06:46:57;20.80;99.90
22974;DHT22;11653;50.848;4.584;2022-08-30T06:49:23;20.90;99.90
22974;DHT22;11653;50.848;4.584;2022-08-30T06:51:49;21.00;99.90
22974;DHT22;11653;50.848;4.584;2022-08-30T06:54:16;20.90;99.90
22974;DHT22;11653;50.848;4.584;2022-08-30T06:56:42;20.80;99.90
22974;DHT22;11653;50.848;4.584;2022-08-30T06:59:08;20.80;99.90
22974;DHT22;11653;50.848;4.584;2022-08-30T07:01:34;20.90;99.90
22974;DHT22;11653;50.848;4.584;2022-08-30T07:04:03;20.90;99.90
22974;DHT22;11653;50.848;4.584;2022-08-30T07:06:31;21.10;99.90
22974;DHT22;11653;50.848;4.584;2022-08-30T07:08:57;21.40;99.90
22974;DHT22;11653;50.848;4.584;2022-08-30T07:13:51;22.00;99.90
22974;DHT22;11653;50.848;4.584;2022-08-30T07:16:17;22.00;99.90
22974;DHT22;11653;50.848;4.584;2022-08-30T07:18:43;22.20;99.90
22974;DHT22;11653;50.848;4.584;2022-08-30T07:21:28;22.30;99.90
22974;DHT22;11653;50.848;4.584;2022-08-30T07:24:00;22.50;99.90
22974;DHT22;11653;50.848;4.584;2022-08-30T07:26:32;22.70;99.90
22974;DHT22;11653;50.848;4.584;2022-08-30T07:28:59;22.90;99.90
22974;DHT22;11653;50.848;4.584;2022-08-30T07:31:26;23.10;99.90
22974;DHT22;11653;50.848;4.584;2022-08-30T07:33:52;23.20;99.90
22974;DHT22;11653;50.848;4.584;2022-08-30T07:36:19;23.40;99.90
22974;DHT22;11653;50.848;4.584;2022-08-30T07:38:47;23.70;99.90
22974;DHT22;11653;50.848;4.584;2022-08-30T07:41:29;24.00;99.90
22974;DHT22;11653;50.848;4.584;2022-08-30T07:43:55;24.00;99.60
22974;DHT22;11653;50.848;4.584;2022-08-30T07:46:22;24.10;99.30
22974;DHT22;11653;50.848;4.584;2022-08-30T07:48:48;24.30;98.40
22974;DHT22;11653;50.848;4.584;2022-08-30T07:51:17;24.50;98.10
22974;DHT22;11653;50.848;4.584;2022-08-30T07:53:43;24.80;96.90
22974;DHT22;11653;50.848;4.584;2022-08-30T07:56:09;25.00;96.10
22974;DHT22;11653;50.848;4.584;2022-08-30T07:58:36;25.20;96.50
22974;DHT22;11653;50.848;4.584;2022-08-30T08:01:03;25.90;94.80
22974;DHT22;11653;50.848;4.584;2022-08-30T08:03:29;27.00;93.20
22974;DHT22;11653;50.848;4.584;2022-08-30T08:05:55;27.90;90.00
22974;DHT22;11653;50.848;4.584;2022-08-30T08:08:21;28.20;85.30
22974;DHT22;11653;50.848;4.584;2022-08-30T08:10:48;28.20;84.80
22974;DHT22;11653;50.848;4.584;2022-08-30T08:13:13;28.40;83.20
22974;DHT22;11653;50.848;4.584;2022-08-30T08:15:39;28.30;82.30
22974;DHT22;11653;50.848;4.584;2022-08-30T08:18:05;28.30;82.00
22974;DHT22;11653;50.848;4.584;2022-08-30T08:20:32;28.30;82.00
22974;DHT22;11653;50.848;4.584;2022-08-30T08:22:58;28.20;81.50
22974;DHT22;11653;50.848;4.584;2022-08-30T08:25:25;28.40;80.50
22974;DHT22;11653;50.848;4.584;2022-08-30T08:27:51;28.80;79.80
22974;DHT22;11653;50.848;4.584;2022-08-30T08:30:19;29.10;78.90
22974;DHT22;11653;50.848;4.584;2022-08-30T08:32:45;29.30;77.80
22974;DHT22;11653;50.848;4.584;2022-08-30T08:35:12;29.70;74.90
22974;DHT22;11653;50.848;4.584;2022-08-30T08:37:38;29.90;74.40
22974;DHT22;11653;50.848;4.584;2022-08-30T08:40:05;30.10;73.80
22974;DHT22;11653;50.848;4.584;2022-08-30T08:48:54;31.30;70.90
22974;DHT22;11653;50.848;4.584;2022-08-30T08:51:01;32.00;67.60
22974;DHT22;11653;50.848;4.584;2022-08-30T08:53:52;32.40;65.20
22974;DHT22;11653;50.848;4.584;2022-08-30T08:56:20;32.70;64.20
22974;DHT22;11653;50.848;4.584;2022-08-30T08:58:53;32.70;63.90
22974;DHT22;11653;50.848;4.584;2022-08-30T09:01:22;32.80;63.30
22974;DHT22;11653;50.848;4.584;2022-08-30T09:03:48;32.80;61.90
22974;DHT22;11653;50.848;4.584;2022-08-30T09:06:39;33.00;61.80
22974;DHT22;11653;50.848;4.584;2022-08-30T09:09:06;32.10;62.50
22974;DHT22;11653;50.848;4.584;2022-08-30T09:11:34;32.10;63.00
22974;DHT22;11653;50.848;4.584;2022-08-30T09:14:02;32.40;62.10
22974;DHT22;11653;50.848;4.584;2022-08-30T09:19:38;31.60;62.50
22974;DHT22;11653;50.848;4.584;2022-08-30T09:22:37;32.00;63.00
22974;DHT22;11653;50.848;4.584;2022-08-30T09:27:45;31.90;64.40
22974;DHT22;11653;50.848;4.584;2022-08-30T09:30:18;31.90;62.20
22974;DHT22;11653;50.848;4.584;2022-08-30T09:32:53;31.60;63.40
22974;DHT22;11653;50.848;4.584;2022-08-30T09:35:25;31.90;62.50
22974;DHT22;11653;50.848;4.584;2022-08-30T09:38:25;31.20;63.50
22974;DHT22;11653;50.848;4.584;2022-08-30T09:40:55;31.10;63.60
22974;DHT22;11653;50.848;4.584;2022-08-30T09:43:32;30.90;65.10
22974;DHT22;11653;50.848;4.584;2022-08-30T09:53:33;30.90;64.60
22974;DHT22;11653;50.848;4.584;2022-08-30T09:56:10;31.10;63.90
22974;DHT22;11653;50.848;4.584;2022-08-30T10:02:02;31.00;63.20
22974;DHT22;11653;50.848;4.584;2022-08-30T10:04:44;30.60;66.20
22974;DHT22;11653;50.848;4.584;2022-08-30T10:07:17;30.80;65.90
22974;DHT22;11653;50.848;4.584;2022-08-30T10:10:10;31.10;63.30
22974;DHT22;11653;50.848;4.584;2022-08-30T10:13:02;31.60;62.90
22974;DHT22;11653;50.848;4.584;2022-08-30T10:15:53;30.90;64.10
22974;DHT22;11653;50.848;4.584;2022-08-30T10:18:57;31.30;63.50
22974;DHT22;11653;50.848;4.584;2022-08-30T10:21:53;31.80;61.20
22974;DHT22;11653;50.848;4.584;2022-08-30T10:24:27;32.60;60.30
22974;DHT22;11653;50.848;4.584;2022-08-30T10:29:50;32.70;59.00
22974;DHT22;11653;50.848;4.584;2022-08-30T10:32:23;33.20;58.80
22974;DHT22;11653;50.848;4.584;2022-08-30T10:34:56;33.40;58.50
22974;DHT22;11653;50.848;4.584;2022-08-30T10:37:28;33.70;57.50
22974;DHT22;11653;50.848;4.584;2022-08-30T10:39:58;33.70;57.00
22974;DHT22;11653;50.848;4.584;2022-08-30T10:42:46;34.20;56.50
22974;DHT22;11653;50.848;4.584;2022-08-30T10:45:15;34.20;55.40
22974;DHT22;11653;50.848;4.584;2022-08-30T10:47:54;34.30;55.00
22974;DHT22;11653;50.848;4.584;2022-08-30T10:50:27;34.00;55.30
22974;DHT22;11653;50.848;4.584;2022-08-30T10:56:05;34.30;55.30
22974;DHT22;11653;50.848;4.584;2022-08-30T10:58:32;34.70;53.70
22974;DHT22;11653;50.848;4.584;2022-08-30T11:01:45;34.90;52.60
22974;DHT22;11653;50.848;4.584;2022-08-30T11:15:27;33.50;54.90
22974;DHT22;11653;50.848;4.584;2022-08-30T11:20:49;34.00;53.80
22974;DHT22;11653;50.848;4.584;2022-08-30T11:23:28;33.80;53.60
22974;DHT22;11653;50.848;4.584;2022-08-30T11:26:08;34.00;54.40
22974;DHT22;11653;50.848;4.584;2022-08-30T11:31:32;33.90;53.90
22974;DHT22;11653;50.848;4.584;2022-08-30T11:33:59;33.80;53.70
22974;DHT22;11653;50.848;4.584;2022-08-30T11:42:24;34.70;52.90
22974;DHT22;11653;50.848;4.584;2022-08-30T11:44:49;35.30;51.60
22974;DHT22;11653;50.848;4.584;2022-08-30T11:47:38;35.60;51.20
22974;DHT22;11653;50.848;4.584;2022-08-30T11:50:29;35.80;50.20
22974;DHT22;11653;50.848;4.584;2022-08-30T11:53:25;36.10;49.80
22974;DHT22;11653;50.848;4.584;2022-08-30T11:56:06;35.80;50.50
22974;DHT22;11653;50.848;4.584;2022-08-30T12:01:19;35.30;49.60
22974;DHT22;11653;50.848;4.584;2022-08-30T12:04:07;35.50;50.60
22974;DHT22;11653;50.848;4.584;2022-08-30T12:09:05;36.60;48.70
22974;DHT22;11653;50.848;4.584;2022-08-30T12:13:59;36.30;48.80
22974;DHT22;11653;50.848;4.584;2022-08-30T12:16:39;35.30;49.50
22974;DHT22;11653;50.848;4.584;2022-08-30T12:19:27;34.40;50.90
22974;DHT22;11653;50.848;4.584;2022-08-30T12:22:01;33.70;52.10
22974;DHT22;11653;50.848;4.584;2022-08-30T12:24:31;33.20;53.30
22974;DHT22;11653;50.848;4.584;2022-08-30T12:27:19;33.00;53.70
22974;DHT22;11653;50.848;4.584;2022-08-30T12:29:51;32.80;54.40
22974;DHT22;11653;50.848;4.584;2022-08-30T12:32:18;32.20;55.20
22974;DHT22;11653;50.848;4.584;2022-08-30T12:34:56;31.60;56.20
22974;DHT22;11653;50.848;4.584;2022-08-30T12:37:27;31.50;56.20
22974;DHT22;11653;50.848;4.584;2022-08-30T12:40:13;31.10;56.80
22974;DHT22;11653;50.848;4.584;2022-08-30T12:42:47;30.80;57.40
22974;DHT22;11653;50.848;4.584;2022-08-30T12:45:16;30.70;58.60
22974;DHT22;11653;50.848;4.584;2022-08-30T12:48:04;30.30;59.00
22974;DHT22;11653;50.848;4.584;2022-08-30T12:50:43;30.00;59.00
22974;DHT22;11653;50.848;4.584;2022-08-30T12:53:11;29.60;60.40
22974;DHT22;11653;50.848;4.584;2022-08-30T12:56:05;29.70;61.90
22974;DHT22;11653;50.848;4.584;2022-08-30T12:58:46;29.80;62.00
22974;DHT22;11653;50.848;4.584;2022-08-30T13:06:57;29.70;61.10
22974;DHT22;11653;50.848;4.584;2022-08-30T13:09:30;29.60;61.60
22974;DHT22;11653;50.848;4.584;2022-08-30T13:11:57;29.40;62.30
22974;DHT22;11653;50.848;4.584;2022-08-30T13:14:34;29.50;61.90
22974;DHT22;11653;50.848;4.584;2022-08-30T13:17:19;29.40;61.40
22974;DHT22;11653;50.848;4.584;2022-08-30T13:23:02;29.40;62.50
22974;DHT22;11653;50.848;4.584;2022-08-30T13:25:28;28.90;63.50
22974;DHT22;11653;50.848;4.584;2022-08-30T13:27:55;28.50;63.90
22974;DHT22;11653;50.848;4.584;2022-08-30T13:30:21;28.40;63.60
22974;DHT22;11653;50.848;4.584;2022-08-30T13:32:47;28.40;64.70
22974;DHT22;11653;50.848;4.584;2022-08-30T13:35:13;28.70;63.40
22974;DHT22;11653;50.848;4.584;2022-08-30T13:37:40;28.90;63.00
22974;DHT22;11653;50.848;4.584;2022-08-30T13:40:10;28.80;62.70
22974;DHT22;11653;50.848;4.584;2022-08-30T13:42:37;28.70;63.80
22974;DHT22;11653;50.848;4.584;2022-08-30T13:45:07;28.60;64.60
22974;DHT22;11653;50.848;4.584;2022-08-30T13:47:33;28.70;63.80
22974;DHT22;11653;50.848;4.584;2022-08-30T13:49:59;28.40;64.00
22974;DHT22;11653;50.848;4.584;2022-08-30T13:52:25;28.40;63.80
22974;DHT22;11653;50.848;4.584;2022-08-30T13:54:52;28.30;64.80
22974;DHT22;11653;50.848;4.584;2022-08-30T13:57:23;28.30;65.00
22974;DHT22;11653;50.848;4.584;2022-08-30T13:59:49;28.40;64.30
22974;DHT22;11653;50.848;4.584;2022-08-30T14:02:14;28.40;64.00
22974;DHT22;11653;50.848;4.584;2022-08-30T14:04:40;28.20;64.60
22974;DHT22;11653;50.848;4.584;2022-08-30T14:07:05;28.10;64.70
22974;DHT22;11653;50.848;4.584;2022-08-30T14:09:31;28.30;64.70
22974;DHT22;11653;50.848;4.584;2022-08-30T14:11:57;28.20;64.60
22974;DHT22;11653;50.848;4.584;2022-08-30T14:14:24;28.20;65.30
22974;DHT22;11653;50.848;4.584;2022-08-30T14:16:49;28.40;64.40
22974;DHT22;11653;50.848;4.584;2022-08-30T14:19:16;28.60;64.80
22974;DHT22;11653;50.848;4.584;2022-08-30T14:21:42;28.60;63.90
22974;DHT22;11653;50.848;4.584;2022-08-30T14:24:09;28.50;64.50
22974;DHT22;11653;50.848;4.584;2022-08-30T14:26:44;28.50;64.60
22974;DHT22;11653;50.848;4.584;2022-08-30T14:29:15;28.50;64.20
22974;DHT22;11653;50.848;4.584;2022-08-30T14:31:41;28.60;64.80
22974;DHT22;11653;50.848;4.584;2022-08-30T14:34:09;28.70;64.40
22974;DHT22;11653;50.848;4.584;2022-08-30T14:36:36;28.80;63.80
22974;DHT22;11653;50.848;4.584;2022-08-30T14:39:07;28.90;64.10
22974;DHT22;11653;50.848;4.584;2022-08-30T14:41:33;28.70;63.30
22974;DHT22;11653;50.848;4.584;2022-08-30T14:43:59;28.70;62.80
22974;DHT22;11653;50.848;4.584;2022-08-30T14:46:25;28.80;64.10
22974;DHT22;11653;50.848;4.584;2022-08-30T14:48:52;28.80;63.90
22974;DHT22;11653;50.848;4.584;2022-08-30T14:51:22;28.60;65.90
22974;DHT22;11653;50.848;4.584;2022-08-30T14:53:51;28.70;64.60
22974;DHT22;11653;50.848;4.584;2022-08-30T14:56:18;28.40;64.90
22974;DHT22;11653;50.848;4.584;2022-08-30T14:58:50;28.50;64.40
22974;DHT22;11653;50.848;4.584;2022-08-30T15:01:16;28.20;64.50
22974;DHT22;11653;50.848;4.584;2022-08-30T15:03:42;28.10;65.00
22974;DHT22;11653;50.848;4.584;2022-08-30T15:06:08;28.10;65.70
22974;DHT22;11653;50.848;4.584;2022-08-30T15:08:35;28.20;65.50
22974;DHT22;11653;50.848;4.584;2022-08-30T15:11:09;28.20;64.50
22974;DHT22;11653;50.848;4.584;2022-08-30T15:13:35;28.30;64.90
22974;DHT22;11653;50.848;4.584;2022-08-30T15:16:01;28.40;64.50
22974;DHT22;11653;50.848;4.584;2022-08-30T15:18:26;28.40;65.20
22974;DHT22;11653;50.848;4.584;2022-08-30T15:20:52;28.30;64.70
22974;DHT22;11653;50.848;4.584;2022-08-30T15:23:18;28.20;64.70
22974;DHT22;11653;50.848;4.584;2022-08-30T15:25:44;28.20;64.60
22974;DHT22;11653;50.848;4.584;2022-08-30T15:28:09;28.10;65.70
22974;DHT22;11653;50.848;4.584;2022-08-30T15:30:35;28.00;65.50
22974;DHT22;11653;50.848;4.584;2022-08-30T15:33:01;28.00;65.50
22974;DHT22;11653;50.848;4.584;2022-08-30T15:35:27;28.00;65.40
22974;DHT22;11653;50.848;4.584;2022-08-30T15:37:53;28.10;65.30
22974;DHT22;11653;50.848;4.584;2022-08-30T15:40:18;28.10;65.20
22974;DHT22;11653;50.848;4.584;2022-08-30T15:42:44;28.10;65.40
22974;DHT22;11653;50.848;4.584;2022-08-30T15:45:11;27.90;65.90
22974;DHT22;11653;50.848;4.584;2022-08-30T15:47:37;27.90;65.70
22974;DHT22;11653;50.848;4.584;2022-08-30T15:50:04;27.80;65.50
22974;DHT22;11653;50.848;4.584;2022-08-30T15:52:31;27.70;65.90
22974;DHT22;11653;50.848;4.584;2022-08-30T15:54:57;27.70;66.20
22974;DHT22;11653;50.848;4.584;2022-08-30T15:57:23;27.90;66.10
22974;DHT22;11653;50.848;4.584;2022-08-30T15:59:49;27.90;66.40
22974;DHT22;11653;50.848;4.584;2022-08-30T16:02:15;28.00;65.20
22974;DHT22;11653;50.848;4.584;2022-08-30T16:04:41;28.00;65.30
22974;DHT22;11653;50.848;4.584;2022-08-30T16:07:07;27.80;66.10
22974;DHT22;11653;50.848;4.584;2022-08-30T16:09:34;27.90;66.10
22974;DHT22;11653;50.848;4.584;2022-08-30T16:12:01;28.00;65.10
22974;DHT22;11653;50.848;4.584;2022-08-30T16:14:29;28.10;64.00
22974;DHT22;11653;50.848;4.584;2022-08-30T16:16:55;28.10;64.00
22974;DHT22;11653;50.848;4.584;2022-08-30T16:19:21;28.10;64.60
22974;DHT22;11653;50.848;4.584;2022-08-30T16:21:47;28.00;64.40
22974;DHT22;11653;50.848;4.584;2022-08-30T16:24:13;28.00;64.90
22974;DHT22;11653;50.848;4.584;2022-08-30T16:26:40;28.00;64.60
22974;DHT22;11653;50.848;4.584;2022-08-30T16:29:06;28.10;64.60
22974;DHT22;11653;50.848;4.584;2022-08-30T16:31:33;28.00;64.50
22974;DHT22;11653;50.848;4.584;2022-08-30T16:33:59;28.00;64.70
22974;DHT22;11653;50.848;4.584;2022-08-30T16:36:25;27.90;64.80
22974;DHT22;11653;50.848;4.584;2022-08-30T16:38:51;27.80;65.50
22974;DHT22;11653;50.848;4.584;2022-08-30T16:41:18;27.80;65.80
22974;DHT22;11653;50.848;4.584;2022-08-30T16:43:45;27.70;65.90
22974;DHT22;11653;50.848;4.584;2022-08-30T16:46:13;27.60;66.20
22974;DHT22;11653;50.848;4.584;2022-08-30T16:48:40;27.50;66.60
22974;DHT22;11653;50.848;4.584;2022-08-30T16:51:12;27.50;66.50
22974;DHT22;11653;50.848;4.584;2022-08-30T16:53:39;27.40;66.80